createdAt,value
2018-06-25T00:00:32.580Z,91.83
2018-06-25T00:01:32.919Z,91.74
2018-06-25T00:02:32.544Z,91.35
2018-06-25T00:03:32.549Z,91.93
2018-06-25T00:04:32.529Z,91.83
2018-06-25T00:05:32.507Z,91.54
2018-06-25T00:06:32.502Z,91.35
2018-06-25T00:07:32.618Z,92.11
2018-06-25T00:08:32.481Z,91.54
2018-06-25T00:09:32.473Z,91.83
2018-06-25T00:10:32.458Z,90.88
2018-06-25T00:11:32.442Z,91.54
2018-06-25T00:12:32.421Z,91.45
2018-06-25T00:13:32.423Z,92.02
2018-06-25T00:14:32.413Z,91.93
2018-06-25T00:15:32.393Z,91.93
2018-06-25T00:16:32.384Z,91.83
2018-06-25T00:17:32.369Z,92.02
2018-06-25T00:18:32.398Z,91.83
2018-06-25T00:19:32.348Z,92.02
2018-06-25T00:20:32.354Z,92.02
2018-06-25T00:21:32.331Z,91.64
2018-06-25T00:22:32.322Z,91.93
2018-06-25T00:23:32.315Z,91.25
2018-06-25T00:24:32.292Z,91.54
2018-06-25T00:25:32.283Z,92.21
2018-06-25T00:26:32.272Z,91.83
2018-06-25T00:27:32.337Z,91.74
2018-06-25T00:28:32.260Z,92.50
2018-06-25T00:29:32.248Z,92.50
2018-06-25T00:30:32.226Z,92.40
2018-06-25T00:31:32.230Z,92.59
2018-06-25T00:32:32.197Z,92.50
2018-06-25T00:33:32.192Z,92.11
2018-06-25T00:34:32.183Z,92.11
2018-06-25T00:35:32.167Z,92.11
2018-06-25T00:36:32.168Z,92.50
2018-06-25T00:37:32.138Z,92.50
2018-06-25T00:38:32.131Z,92.50
2018-06-25T00:39:32.124Z,92.30
2018-06-25T00:40:32.106Z,92.21
2018-06-25T00:41:32.107Z,92.50
2018-06-25T00:42:32.077Z,92.59
2018-06-25T00:43:32.071Z,92.21
2018-06-25T00:44:32.051Z,92.50
2018-06-25T00:45:32.059Z,93.07
2018-06-25T00:46:32.036Z,93.07
2018-06-25T00:47:32.035Z,93.26
2018-06-25T00:48:32.011Z,92.97
2018-06-25T00:49:31.998Z,92.88
2018-06-25T00:50:32.048Z,93.26
2018-06-25T00:51:31.973Z,92.97
2018-06-25T00:52:31.973Z,92.79
2018-06-25T00:53:31.955Z,92.59
2018-06-25T00:54:31.945Z,93.45
2018-06-25T00:55:31.937Z,93.36
2018-06-25T00:56:32.021Z,93.45
2018-06-25T00:57:31.906Z,93.16
2018-06-25T00:58:31.898Z,93.36
2018-06-25T00:59:31.884Z,92.69
2018-06-25T01:00:31.880Z,92.97
2018-06-25T01:01:31.854Z,92.59
2018-06-25T01:02:31.863Z,92.88
2018-06-25T01:03:31.836Z,92.97
2018-06-25T01:04:31.819Z,92.97
2018-06-25T01:05:31.811Z,92.79
2018-06-25T01:06:31.803Z,93.36
2018-06-25T01:07:31.914Z,93.07
2018-06-25T01:08:31.776Z,93.16
2018-06-25T01:09:31.763Z,93.07
2018-06-25T01:10:31.754Z,93.07
2018-06-25T01:11:31.729Z,92.97
2018-06-25T01:12:31.730Z,92.97
2018-06-25T01:13:31.725Z,93.16
2018-06-25T01:14:31.700Z,92.97
2018-06-25T01:15:31.692Z,93.26
2018-06-25T01:16:31.673Z,93.16
2018-06-25T01:17:31.661Z,93.84
2018-06-25T01:18:31.670Z,93.93
2018-06-25T01:19:31.673Z,93.16
2018-06-25T01:20:31.645Z,93.07
2018-06-25T01:21:31.619Z,93.26
2018-06-25T01:22:31.608Z,93.16
2018-06-25T01:23:31.606Z,93.16
2018-06-25T01:24:31.620Z,93.65
2018-06-25T01:25:31.568Z,93.74
2018-06-25T01:26:31.564Z,93.26
2018-06-25T01:27:31.549Z,93.74
2018-06-25T01:28:31.549Z,93.74
2018-06-25T01:29:31.524Z,93.55
2018-06-25T01:30:31.513Z,93.55
2018-06-25T01:31:31.502Z,94.12
2018-06-25T01:32:31.527Z,93.84
2018-06-25T01:33:31.473Z,93.93
2018-06-25T01:34:31.473Z,94.12
2018-06-25T01:35:31.450Z,94.12
2018-06-25T01:36:31.443Z,93.93
2018-06-25T01:37:31.470Z,94.22
2018-06-25T01:38:31.417Z,94.02
2018-06-25T01:39:31.397Z,93.93
2018-06-25T01:40:31.404Z,94.02
2018-06-25T01:41:31.415Z,94.22
2018-06-25T01:42:31.377Z,93.84
2018-06-25T01:43:31.370Z,93.55
2018-06-25T01:44:31.346Z,93.84
2018-06-25T01:45:31.328Z,94.02
2018-06-25T01:46:31.463Z,94.31
2018-06-25T01:47:31.314Z,93.55
2018-06-25T01:48:31.310Z,93.55
2018-06-25T01:49:31.299Z,93.55
2018-06-25T01:50:31.282Z,93.55
2018-06-25T01:51:31.266Z,93.65
2018-06-25T01:52:31.549Z,93.45
2018-06-25T01:53:31.245Z,94.02
2018-06-25T01:54:31.229Z,94.22
2018-06-25T01:55:31.225Z,93.74
2018-06-25T01:56:31.210Z,93.65
2018-06-25T01:57:31.189Z,93.65
2018-06-25T01:58:31.219Z,93.45
2018-06-25T01:59:31.159Z,93.36
2018-06-25T02:00:31.150Z,94.12
2018-06-25T02:01:31.146Z,93.74
2018-06-25T02:02:31.134Z,93.65
2018-06-25T02:03:31.480Z,93.93
2018-06-25T02:04:31.127Z,94.12
2018-06-25T02:05:31.102Z,94.31
2018-06-25T02:06:31.087Z,93.93
2018-06-25T02:07:31.084Z,94.12
2018-06-25T02:08:31.054Z,94.02
2018-06-25T02:09:31.114Z,94.60
2018-06-25T02:10:31.048Z,94.89
2018-06-25T02:11:31.019Z,94.51
2018-06-25T02:12:31.012Z,94.02
2018-06-25T02:13:30.999Z,93.84
2018-06-25T02:14:30.999Z,93.84
2018-06-25T02:15:30.985Z,93.93
2018-06-25T02:16:30.965Z,94.12
2018-06-25T02:17:30.967Z,94.79
2018-06-25T02:18:30.942Z,94.60
2018-06-25T02:19:31.075Z,94.60
2018-06-25T02:20:30.927Z,94.70
2018-06-25T02:21:30.912Z,94.41
2018-06-25T02:22:30.891Z,94.79
2018-06-25T02:23:30.898Z,94.70
2018-06-25T02:24:30.886Z,94.89
2018-06-25T02:25:30.892Z,94.51
2018-06-25T02:26:30.853Z,94.89
2018-06-25T02:27:30.837Z,94.41
2018-06-25T02:28:30.838Z,94.51
2018-06-25T02:29:30.817Z,94.51
2018-06-25T02:30:30.812Z,94.60
2018-06-25T02:31:30.790Z,94.41
2018-06-25T02:32:30.775Z,95.17
2018-06-25T02:33:30.774Z,94.51
2018-06-25T02:34:30.751Z,94.51
2018-06-25T02:35:30.808Z,95.17
2018-06-25T02:36:30.733Z,95.17
2018-06-25T02:37:30.725Z,95.07
2018-06-25T02:38:30.738Z,94.89
2018-06-25T02:39:30.697Z,95.27
2018-06-25T02:40:30.685Z,94.51
2018-06-25T02:41:30.699Z,94.51
2018-06-25T02:42:30.655Z,94.79
2018-06-25T02:43:30.653Z,94.31
2018-06-25T02:44:30.626Z,95.17
2018-06-25T02:45:30.629Z,95.17
2018-06-25T02:46:30.647Z,94.70
2018-06-25T02:47:30.633Z,94.89
2018-06-25T02:48:30.580Z,95.84
2018-06-25T02:49:30.582Z,95.75
2018-06-25T02:50:30.562Z,95.65
2018-06-25T02:51:30.552Z,95.65
2018-06-25T02:52:30.537Z,95.46
2018-06-25T02:53:30.527Z,95.07
2018-06-25T02:54:30.545Z,94.70
2018-06-25T02:55:30.513Z,95.27
2018-06-25T02:56:30.493Z,95.07
2018-06-25T02:57:30.512Z,95.27
2018-06-25T02:58:30.476Z,95.36
2018-06-25T02:59:30.457Z,95.36
2018-06-25T03:00:30.458Z,95.07
2018-06-25T03:01:30.461Z,94.79
2018-06-25T03:02:30.457Z,95.07
2018-06-25T03:03:30.409Z,94.79
2018-06-25T03:04:30.400Z,94.98
2018-06-25T03:05:30.387Z,94.70
2018-06-25T03:06:30.383Z,95.07
2018-06-25T03:07:30.394Z,95.27
2018-06-25T03:08:30.354Z,95.07
2018-06-25T03:09:30.336Z,94.89
2018-06-25T03:10:30.325Z,95.36
2018-06-25T03:11:30.325Z,95.07
2018-06-25T03:12:30.341Z,95.27
2018-06-25T03:13:30.288Z,95.36
2018-06-25T03:14:30.275Z,95.94
2018-06-25T03:15:30.265Z,95.07
2018-06-25T03:16:30.246Z,94.70
2018-06-25T03:17:30.398Z,95.94
2018-06-25T03:18:30.237Z,95.36
2018-06-25T03:19:30.215Z,95.17
2018-06-25T03:20:30.206Z,94.70
2018-06-25T03:21:30.202Z,94.98
2018-06-25T03:22:30.193Z,94.79
2018-06-25T03:23:30.208Z,95.07
2018-06-25T03:24:30.167Z,94.89
2018-06-25T03:25:30.151Z,94.89
2018-06-25T03:26:30.135Z,95.07
2018-06-25T03:27:30.164Z,94.70
2018-06-25T03:28:30.114Z,95.07
2018-06-25T03:29:30.095Z,95.07
2018-06-25T03:30:30.119Z,95.84
2018-06-25T03:31:30.079Z,95.84
2018-06-25T03:32:30.076Z,95.65
2018-06-25T03:33:30.054Z,95.75
2018-06-25T03:34:30.043Z,95.84
2018-06-25T03:35:30.063Z,95.75
2018-06-25T03:36:30.018Z,95.84
2018-06-25T03:37:30.007Z,94.79
2018-06-25T03:38:29.991Z,95.17
2018-06-25T03:39:29.980Z,94.98
2018-06-25T03:40:29.996Z,94.89
2018-06-25T03:41:29.957Z,95.07
2018-06-25T03:42:30.002Z,95.07
2018-06-25T03:43:29.930Z,95.27
2018-06-25T03:44:29.928Z,95.07
2018-06-25T03:45:29.908Z,94.89
2018-06-25T03:46:29.889Z,94.89
2018-06-25T03:47:29.879Z,95.36
2018-06-25T03:48:30.046Z,95.27
2018-06-25T03:49:29.865Z,95.07
2018-06-25T03:50:29.849Z,95.27
2018-06-25T03:51:29.843Z,94.51
2018-06-25T03:52:29.848Z,95.22
2018-06-25T03:53:29.813Z,94.89
2018-06-25T03:54:29.816Z,94.89
2018-06-25T03:55:29.796Z,94.98
2018-06-25T03:56:29.792Z,94.98
2018-06-25T03:57:29.779Z,95.36
2018-06-25T03:58:29.760Z,94.70
2018-06-25T03:59:29.756Z,94.89
2018-06-25T04:00:29.735Z,95.27
2018-06-25T04:01:29.766Z,94.89
2018-06-25T04:02:29.751Z,95.17
2018-06-25T04:03:29.711Z,95.07
2018-06-25T04:04:29.685Z,95.36
2018-06-25T04:05:29.684Z,95.17
2018-06-25T04:06:29.679Z,95.65
2018-06-25T04:07:29.687Z,95.56
2018-06-25T04:08:29.648Z,95.07
2018-06-25T04:09:29.640Z,95.12
2018-06-25T04:10:29.621Z,94.98
2018-06-25T04:11:29.614Z,95.07
2018-06-25T04:12:29.620Z,94.98
2018-06-25T04:13:29.582Z,95.17
2018-06-25T04:14:29.571Z,94.98
2018-06-25T04:15:29.591Z,94.70
2018-06-25T04:16:29.555Z,94.89
2018-06-25T04:17:29.558Z,95.36
2018-06-25T04:18:29.523Z,95.07
2018-06-25T04:19:29.512Z,94.79
2018-06-25T04:20:29.492Z,95.07
2018-06-25T04:21:29.495Z,95.41
2018-06-25T04:22:29.513Z,95.07
2018-06-25T04:23:29.559Z,95.32
2018-06-25T04:24:29.464Z,95.94
2018-06-25T04:25:29.457Z,95.84
2018-06-25T04:26:29.422Z,95.89
2018-06-25T04:27:29.426Z,95.89
2018-06-25T04:28:29.416Z,95.12
2018-06-25T04:29:29.414Z,94.93
2018-06-25T04:30:29.388Z,95.12
2018-06-25T04:31:29.381Z,94.93
2018-06-25T04:32:29.367Z,94.46
2018-06-25T04:33:29.355Z,94.84
2018-06-25T04:34:29.346Z,94.55
2018-06-25T04:35:29.329Z,95.12
2018-06-25T04:36:29.317Z,95.07
2018-06-25T04:37:29.300Z,95.22
2018-06-25T04:38:29.326Z,95.07
2018-06-25T04:39:29.286Z,94.84
2018-06-25T04:40:29.272Z,95.41
2018-06-25T04:41:29.270Z,95.89
2018-06-25T04:42:29.279Z,95.98
2018-06-25T04:43:29.239Z,95.89
2018-06-25T04:44:29.226Z,95.03
2018-06-25T04:45:29.229Z,94.93
2018-06-25T04:46:29.203Z,95.41
2018-06-25T04:47:29.216Z,95.41
2018-06-25T04:48:29.180Z,94.93
2018-06-25T04:49:29.166Z,95.41
2018-06-25T04:50:29.212Z,95.41
2018-06-25T04:51:29.173Z,95.41
2018-06-25T04:52:29.162Z,95.41
2018-06-25T04:53:29.111Z,94.46
2018-06-25T04:54:29.110Z,94.74
2018-06-25T04:55:29.103Z,94.74
2018-06-25T04:56:29.078Z,95.70
2018-06-25T04:57:29.114Z,95.51
2018-06-25T04:58:29.066Z,95.51
2018-06-25T04:59:29.049Z,95.89
2018-06-25T05:00:29.041Z,95.70
2018-06-25T05:01:29.027Z,95.70
2018-06-25T05:02:29.074Z,95.98
2018-06-25T05:03:28.998Z,96.27
2018-06-25T05:04:28.998Z,96.27
2018-06-25T05:05:28.983Z,96.08
2018-06-25T05:06:28.973Z,95.70
2018-06-25T05:07:28.958Z,95.70
2018-06-25T05:08:28.948Z,95.98
2018-06-25T05:09:28.939Z,96.18
2018-06-25T05:10:28.924Z,95.89
2018-06-25T05:11:28.910Z,95.98
2018-06-25T05:12:28.906Z,95.79
2018-06-25T05:13:29.029Z,95.79
2018-06-25T05:14:28.879Z,95.70
2018-06-25T05:15:28.867Z,95.79
2018-06-25T05:16:28.856Z,95.70
2018-06-25T05:17:28.852Z,95.79
2018-06-25T05:18:28.832Z,95.32
2018-06-25T05:19:29.073Z,95.98
2018-06-25T05:20:28.818Z,96.08
2018-06-25T05:21:28.803Z,95.98
2018-06-25T05:22:28.789Z,95.32
2018-06-25T05:23:28.791Z,95.03
2018-06-25T05:24:28.788Z,94.84
2018-06-25T05:25:28.757Z,95.12
2018-06-25T05:26:28.742Z,95.03
2018-06-25T05:27:28.739Z,94.93
2018-06-25T05:28:28.715Z,94.74
2018-06-25T05:29:28.734Z,95.12
2018-06-25T05:30:28.700Z,95.41
2018-06-25T05:31:28.682Z,95.32
2018-06-25T05:32:28.666Z,95.41
2018-06-25T05:33:28.662Z,95.32
2018-06-25T05:34:29.078Z,95.89
2018-06-25T05:35:28.636Z,95.70
2018-06-25T05:36:28.632Z,95.61
2018-06-25T05:37:28.613Z,95.79
2018-06-25T05:38:28.611Z,95.51
2018-06-25T05:39:28.589Z,95.70
2018-06-25T05:40:28.600Z,95.98
2018-06-25T05:41:28.582Z,95.79
2018-06-25T05:42:28.571Z,96.37
2018-06-25T05:43:28.554Z,96.27
2018-06-25T05:44:28.550Z,95.98
2018-06-25T05:45:28.532Z,95.70
2018-06-25T05:46:28.512Z,95.70
2018-06-25T05:47:28.502Z,96.27
2018-06-25T05:48:28.488Z,95.89
2018-06-25T05:49:28.477Z,95.98
2018-06-25T05:50:28.589Z,95.98
2018-06-25T05:51:28.457Z,96.66
2018-06-25T05:52:28.441Z,96.66
2018-06-25T05:53:28.447Z,96.75
2018-06-25T05:54:28.428Z,96.75
2018-06-25T05:55:28.408Z,96.47
2018-06-25T05:56:28.420Z,96.56
2018-06-25T05:57:28.382Z,96.75
2018-06-25T05:58:28.378Z,95.98
2018-06-25T05:59:28.391Z,96.27
2018-06-25T06:00:28.352Z,96.66
2018-06-25T06:01:28.339Z,96.08
2018-06-25T06:02:28.362Z,96.37
2018-06-25T06:03:28.318Z,96.27
2018-06-25T06:04:28.312Z,95.79
2018-06-25T06:05:28.297Z,96.66
2018-06-25T06:06:28.298Z,96.75
2018-06-25T06:07:28.279Z,96.27
2018-06-25T06:08:28.265Z,96.56
2018-06-25T06:09:28.394Z,96.47
2018-06-25T06:10:28.242Z,96.75
2018-06-25T06:11:28.227Z,96.56
2018-06-25T06:12:28.224Z,96.47
2018-06-25T06:13:28.205Z,96.47
2018-06-25T06:14:28.204Z,96.94
2018-06-25T06:15:28.186Z,96.75
2018-06-25T06:16:28.176Z,96.08
2018-06-25T06:17:28.232Z,95.89
2018-06-25T06:18:28.161Z,96.27
2018-06-25T06:19:28.146Z,95.70
2018-06-25T06:20:28.159Z,95.70
2018-06-25T06:21:28.118Z,96.27
2018-06-25T06:22:28.118Z,96.56
2018-06-25T06:23:28.089Z,97.08
2018-06-25T06:24:28.112Z,96.94
2018-06-25T06:25:28.139Z,96.22
2018-06-25T06:26:28.184Z,95.94
2018-06-25T06:27:28.056Z,95.84
2018-06-25T06:28:28.045Z,95.84
2018-06-25T06:29:28.031Z,95.94
2018-06-25T06:30:28.012Z,96.42
2018-06-25T06:31:28.066Z,95.56
2018-06-25T06:32:27.995Z,95.84
2018-06-25T06:33:27.979Z,96.32
2018-06-25T06:34:27.978Z,96.13
2018-06-25T06:35:27.962Z,95.84
2018-06-25T06:36:27.940Z,95.94
2018-06-25T06:37:27.951Z,95.84
2018-06-25T06:38:27.924Z,95.41
2018-06-25T06:39:27.914Z,95.36
2018-06-25T06:40:27.906Z,94.79
2018-06-25T06:41:27.902Z,95.17
2018-06-25T06:42:27.919Z,95.27
2018-06-25T06:43:27.867Z,95.17
2018-06-25T06:44:27.913Z,95.17
2018-06-25T06:45:27.906Z,94.79
2018-06-25T06:46:27.849Z,95.07
2018-06-25T06:47:27.828Z,94.98
2018-06-25T06:48:27.829Z,95.07
2018-06-25T06:49:27.794Z,95.17
2018-06-25T06:50:27.802Z,94.60
2018-06-25T06:51:27.796Z,94.31
2018-06-25T06:52:27.770Z,94.60
2018-06-25T06:53:27.766Z,94.89
2018-06-25T06:54:27.747Z,94.79
2018-06-25T06:55:27.742Z,95.17
2018-06-25T06:56:27.725Z,95.27
2018-06-25T06:57:27.799Z,95.27
2018-06-25T06:58:27.707Z,95.07
2018-06-25T06:59:27.691Z,94.79
2018-06-25T07:00:27.685Z,95.17
2018-06-25T07:01:27.677Z,94.89
2018-06-25T07:02:27.668Z,94.60
2018-06-25T07:03:27.649Z,95.12
2018-06-25T07:04:27.639Z,95.27
2018-06-25T07:05:27.631Z,95.46
2018-06-25T07:06:27.606Z,95.17
2018-06-25T07:07:27.630Z,95.27
2018-06-25T07:08:27.590Z,95.36
2018-06-25T07:09:27.602Z,94.79
2018-06-25T07:10:27.563Z,94.98
2018-06-25T07:11:27.552Z,95.27
2018-06-25T07:12:27.561Z,95.17
2018-06-25T07:13:27.533Z,94.89
2018-06-25T07:14:27.628Z,94.79
2018-06-25T07:15:27.544Z,95.17
2018-06-25T07:16:27.512Z,94.89
2018-06-25T07:17:27.494Z,95.17
2018-06-25T07:18:27.499Z,94.89
2018-06-25T07:19:27.465Z,94.70
2018-06-25T07:20:27.490Z,94.60
2018-06-25T07:21:27.452Z,95.07
2018-06-25T07:22:27.439Z,94.31
2018-06-25T07:23:27.426Z,95.07
2018-06-25T07:24:27.424Z,94.89
2018-06-25T07:25:27.442Z,94.50
2018-06-25T07:26:27.394Z,94.65
2018-06-25T07:27:27.383Z,94.65
2018-06-25T07:28:27.383Z,94.65
2018-06-25T07:29:27.360Z,94.93
2018-06-25T07:30:27.390Z,93.69
2018-06-25T07:31:27.332Z,93.69
2018-06-25T07:32:27.372Z,93.98
2018-06-25T07:33:27.339Z,94.07
2018-06-25T07:34:27.312Z,94.74
2018-06-25T07:35:27.329Z,94.36
2018-06-25T07:36:27.287Z,93.79
2018-06-25T07:37:27.277Z,94.17
2018-06-25T07:38:27.270Z,94.55
2018-06-25T07:39:27.255Z,94.07
2018-06-25T07:40:27.391Z,93.50
2018-06-25T07:41:27.231Z,93.30
2018-06-25T07:42:27.224Z,94.07
2018-06-25T07:43:27.207Z,93.21
2018-06-25T07:44:27.208Z,93.02
2018-06-25T07:45:27.191Z,92.92
2018-06-25T07:46:27.224Z,93.12
2018-06-25T07:47:27.259Z,92.87
2018-06-25T07:48:27.167Z,92.58
2018-06-25T07:49:27.155Z,93.16
2018-06-25T07:50:27.167Z,92.49
2018-06-25T07:51:27.140Z,92.01
2018-06-25T07:52:27.181Z,91.53
2018-06-25T07:53:27.221Z,91.44
2018-06-25T07:54:27.101Z,92.30
2018-06-25T07:55:27.096Z,92.11
2018-06-25T07:56:27.093Z,92.30
2018-06-25T07:57:27.070Z,92.49
2018-06-25T07:58:27.146Z,92.58
2018-06-25T07:59:27.051Z,92.49
2018-06-25T08:00:27.051Z,92.49
2018-06-25T08:01:27.031Z,92.49
2018-06-25T08:02:27.027Z,92.21
2018-06-25T08:03:27.016Z,92.49
2018-06-25T08:04:27.007Z,92.40
2018-06-25T08:05:26.997Z,92.68
2018-06-25T08:06:27.085Z,92.58
2018-06-25T08:07:26.969Z,92.58
2018-06-25T08:08:26.998Z,92.21
2018-06-25T08:09:26.988Z,92.01
2018-06-25T08:10:27.045Z,91.72
2018-06-25T08:11:26.930Z,91.82
2018-06-25T08:12:26.922Z,90.67
2018-06-25T08:13:26.917Z,91.25
2018-06-25T08:14:27.041Z,90.86
2018-06-25T08:15:26.891Z,90.58
2018-06-25T08:16:26.883Z,91.44
2018-06-25T08:17:26.875Z,91.15
2018-06-25T08:18:26.869Z,91.19
2018-06-25T08:19:26.857Z,90.53
2018-06-25T08:20:26.894Z,90.53
2018-06-25T08:21:26.834Z,90.81
2018-06-25T08:22:26.830Z,90.33
2018-06-25T08:23:26.822Z,90.33
2018-06-25T08:24:26.796Z,90.33
2018-06-25T08:25:26.826Z,90.43
2018-06-25T08:26:26.796Z,89.76
2018-06-25T08:27:26.797Z,90.05
2018-06-25T08:28:26.771Z,89.37
2018-06-25T08:29:26.760Z,89.28
2018-06-25T08:30:26.784Z,89.57
2018-06-25T08:31:26.744Z,89.18
2018-06-25T08:32:26.729Z,89.47
2018-06-25T08:33:26.726Z,88.90
2018-06-25T08:34:26.906Z,89.09
2018-06-25T08:35:26.706Z,87.84
2018-06-25T08:36:26.723Z,88.80
2018-06-25T08:37:26.678Z,89.09
2018-06-25T08:38:26.679Z,89.47
2018-06-25T08:39:26.677Z,89.47
2018-06-25T08:40:26.654Z,88.99
2018-06-25T08:41:26.652Z,88.61
2018-06-25T08:42:26.639Z,89.28
2018-06-25T08:43:26.663Z,88.23
2018-06-25T08:44:26.614Z,88.03
2018-06-25T08:45:26.604Z,89.09
2018-06-25T08:46:26.601Z,87.84
2018-06-25T08:47:26.613Z,88.42
2018-06-25T08:48:26.579Z,87.65
2018-06-25T08:49:26.577Z,87.84
2018-06-25T08:50:26.568Z,87.55
2018-06-25T08:51:26.546Z,87.27
2018-06-25T08:52:26.648Z,86.79
2018-06-25T08:53:26.532Z,87.08
2018-06-25T08:54:26.524Z,86.69
2018-06-25T08:55:26.526Z,86.98
2018-06-25T08:56:26.518Z,86.02
2018-06-25T08:57:26.494Z,85.83
2018-06-25T08:58:26.731Z,86.93
2018-06-25T08:59:26.472Z,86.93
2018-06-25T09:00:26.460Z,87.50
2018-06-25T09:01:26.459Z,87.21
2018-06-25T09:02:26.451Z,87.31
2018-06-25T09:03:26.451Z,86.93
2018-06-25T09:04:26.503Z,86.64
2018-06-25T09:05:26.424Z,85.30
2018-06-25T09:06:26.421Z,85.97
2018-06-25T09:07:26.400Z,85.01
2018-06-25T09:08:26.437Z,84.82
2018-06-25T09:09:26.456Z,84.34
2018-06-25T09:10:26.377Z,84.63
2018-06-25T09:11:26.371Z,84.15
2018-06-25T09:12:26.364Z,85.01
2018-06-25T09:13:26.349Z,84.53
2018-06-25T09:14:26.350Z,84.15
2018-06-25T09:15:26.536Z,84.53
2018-06-25T09:16:26.323Z,84.15
2018-06-25T09:17:26.318Z,83.76
2018-06-25T09:18:26.305Z,83.38
2018-06-25T09:19:26.294Z,84.15
2018-06-25T09:20:26.297Z,84.15
2018-06-25T09:21:58.723Z,84.15
2018-06-25T09:22:26.387Z,84.15
2018-06-25T09:23:26.294Z,84.15
2018-06-25T09:24:26.422Z,84.34
2018-06-25T09:25:26.237Z,83.76
2018-06-25T09:26:26.597Z,84.91
2018-06-25T09:27:26.238Z,83.58
2018-06-25T09:28:26.229Z,83.61
2018-06-25T09:29:26.205Z,82.94
2018-06-25T09:30:26.196Z,82.46
2018-06-25T09:31:26.205Z,83.42
2018-06-25T09:32:26.251Z,83.61
2018-06-25T09:33:26.165Z,83.23
2018-06-25T09:34:26.180Z,82.65
2018-06-25T09:35:26.160Z,82.56
2018-06-25T09:36:26.168Z,82.37
2018-06-25T09:37:26.129Z,82.37
2018-06-25T09:38:26.200Z,81.70
2018-06-25T09:39:26.129Z,81.22
2018-06-25T09:40:26.114Z,81.98
2018-06-25T09:41:26.174Z,81.70
2018-06-25T09:42:26.101Z,81.31
2018-06-25T09:43:26.137Z,81.51
2018-06-25T09:44:26.090Z,80.93
2018-06-25T09:45:26.095Z,81.41
2018-06-25T09:46:26.064Z,81.02
2018-06-25T09:47:26.053Z,80.93
2018-06-25T09:48:26.072Z,81.22
2018-06-25T09:49:26.037Z,81.22
2018-06-25T09:50:26.024Z,81.26
2018-06-25T09:51:26.017Z,81.22
2018-06-25T09:52:26.019Z,80.64
2018-06-25T09:53:26.025Z,81.07
2018-06-25T09:54:25.999Z,80.64
2018-06-25T09:55:26.016Z,81.22
2018-06-25T09:56:25.970Z,81.26
2018-06-25T09:57:25.962Z,81.54
2018-06-25T09:58:25.954Z,81.45
2018-06-25T09:59:25.984Z,81.54
2018-06-25T10:00:26.078Z,81.51
2018-06-25T10:01:25.935Z,81.45
2018-06-25T10:02:25.926Z,81.54
2018-06-25T10:03:25.910Z,80.74
2018-06-25T10:04:25.906Z,80.68
2018-06-25T10:05:25.892Z,80.20
2018-06-25T10:06:25.915Z,79.59
2018-06-25T10:07:25.876Z,80.26
2018-06-25T10:08:25.884Z,80.11
2018-06-25T10:09:25.850Z,79.91
2018-06-25T10:10:25.846Z,79.44
2018-06-25T10:11:25.870Z,79.44
2018-06-25T10:12:25.828Z,80.16
2018-06-25T10:13:25.828Z,80.20
2018-06-25T10:14:25.817Z,79.63
2018-06-25T10:15:25.805Z,79.91
2018-06-25T10:16:25.799Z,79.49
2018-06-25T10:17:25.791Z,79.21
2018-06-25T10:18:25.786Z,79.30
2018-06-25T10:19:25.780Z,78.53
2018-06-25T10:20:25.758Z,78.63
2018-06-25T10:21:25.810Z,78.15
2018-06-25T10:22:25.752Z,77.48
2018-06-25T10:23:25.766Z,78.53
2018-06-25T10:24:25.719Z,78.28
2018-06-25T10:25:25.746Z,78.28
2018-06-25T10:26:25.707Z,78.00
2018-06-25T10:27:25.711Z,78.00
2018-06-25T10:28:25.696Z,77.71
2018-06-25T10:29:25.680Z,78.57
2018-06-25T10:30:25.710Z,78.86
2018-06-25T10:31:25.664Z,78.28
2018-06-25T10:32:25.654Z,77.80
2018-06-25T10:33:25.656Z,76.84
2018-06-25T10:34:25.732Z,76.84
2018-06-25T10:35:25.631Z,77.51
2018-06-25T10:36:25.619Z,77.90
2018-06-25T10:37:25.627Z,76.37
2018-06-25T10:38:25.601Z,76.90
2018-06-25T10:39:25.612Z,77.51
2018-06-25T10:40:25.594Z,77.09
2018-06-25T10:41:25.571Z,77.67
2018-06-25T10:42:25.660Z,77.38
2018-06-25T10:43:25.573Z,77.42
2018-06-25T10:44:25.544Z,78.09
2018-06-25T10:45:25.537Z,76.94
2018-06-25T10:46:25.539Z,76.27
2018-06-25T10:47:25.536Z,76.94
2018-06-25T10:48:25.521Z,76.75
2018-06-25T10:49:25.507Z,77.33
2018-06-25T10:50:25.502Z,76.65
2018-06-25T10:51:25.501Z,77.80
2018-06-25T10:52:25.512Z,76.75
2018-06-25T10:53:25.474Z,76.56
2018-06-25T10:54:25.464Z,76.27
2018-06-25T10:55:25.457Z,76.56
2018-06-25T10:56:25.506Z,75.40
2018-06-25T10:57:25.441Z,75.89
2018-06-25T10:58:25.429Z,75.89
2018-06-25T10:59:25.522Z,76.46
2018-06-25T11:00:25.519Z,76.27
2018-06-25T11:01:25.449Z,76.07
2018-06-25T11:02:25.400Z,75.73
2018-06-25T11:03:25.399Z,75.89
2018-06-25T11:04:25.371Z,75.82
2018-06-25T11:05:25.381Z,76.37
2018-06-25T11:06:25.355Z,75.50
2018-06-25T11:07:25.475Z,75.60
2018-06-25T11:08:25.503Z,74.83
2018-06-25T11:09:25.356Z,74.83
2018-06-25T11:10:25.355Z,75.31
2018-06-25T11:11:25.371Z,75.92
2018-06-25T11:12:25.317Z,75.50
2018-06-25T11:13:25.315Z,75.70
2018-06-25T11:14:25.354Z,74.44
2018-06-25T11:15:25.289Z,73.68
2018-06-25T11:16:25.279Z,74.06
2018-06-25T11:17:25.413Z,75.15
2018-06-25T11:18:25.272Z,74.58
2018-06-25T11:19:25.246Z,75.15
2018-06-25T11:20:25.256Z,75.15
2018-06-25T11:21:25.250Z,75.06
2018-06-25T11:22:25.227Z,74.48
2018-06-25T11:23:25.233Z,74.19
2018-06-25T11:24:25.220Z,74.68
2018-06-25T11:25:25.205Z,75.45
2018-06-25T11:26:25.197Z,74.96
2018-06-25T11:27:25.274Z,75.73
2018-06-25T11:28:25.182Z,75.25
2018-06-25T11:29:25.176Z,75.15
2018-06-25T11:30:25.155Z,74.10
2018-06-25T11:31:25.150Z,75.45
2018-06-25T11:32:25.222Z,75.54
2018-06-25T11:33:25.134Z,75.54
2018-06-25T11:34:25.152Z,75.82
2018-06-25T11:35:25.126Z,75.35
2018-06-25T11:36:25.115Z,75.15
2018-06-25T11:37:25.115Z,75.54
2018-06-25T11:38:25.105Z,75.35
2018-06-25T11:39:25.237Z,75.35
2018-06-25T11:40:25.079Z,74.87
2018-06-25T11:41:25.074Z,75.63
2018-06-25T11:42:25.073Z,74.39
2018-06-25T11:43:25.071Z,73.81
2018-06-25T11:44:25.054Z,73.68
2018-06-25T11:45:25.052Z,73.91
2018-06-25T11:46:25.049Z,73.91
2018-06-25T11:47:25.033Z,74.19
2018-06-25T11:48:25.257Z,74.01
2018-06-25T11:49:25.002Z,73.43
2018-06-25T11:50:25.010Z,73.62
2018-06-25T11:51:24.985Z,74.58
2018-06-25T11:52:24.975Z,75.06
2018-06-25T11:53:24.967Z,74.29
2018-06-25T11:54:25.282Z,74.10
2018-06-25T11:55:24.959Z,74.58
2018-06-25T11:56:24.958Z,74.58
2018-06-25T11:57:24.941Z,74.58
2018-06-25T11:58:24.939Z,73.81
2018-06-25T11:59:24.909Z,74.04
2018-06-25T12:00:24.915Z,73.62
2018-06-25T12:01:24.961Z,74.19
2018-06-25T12:02:24.914Z,74.19
2018-06-25T12:03:24.953Z,74.19
2018-06-25T12:04:24.880Z,74.01
2018-06-25T12:05:24.860Z,73.72
2018-06-25T12:06:24.866Z,74.19
2018-06-25T12:07:24.849Z,73.52
2018-06-25T12:08:24.859Z,73.52
2018-06-25T12:09:24.843Z,73.91
2018-06-25T12:10:24.830Z,74.33
2018-06-25T12:11:24.962Z,73.52
2018-06-25T12:12:24.876Z,73.56
2018-06-25T12:13:24.802Z,73.37
2018-06-25T12:14:24.802Z,73.18
2018-06-25T12:15:24.787Z,73.66
2018-06-25T12:16:24.774Z,74.13
2018-06-25T12:17:24.823Z,73.85
2018-06-25T12:18:24.770Z,74.04
2018-06-25T12:19:24.755Z,73.85
2018-06-25T12:20:24.756Z,73.08
2018-06-25T12:21:24.740Z,72.99
2018-06-25T12:22:24.766Z,73.27
2018-06-25T12:23:24.747Z,72.41
2018-06-25T12:24:24.718Z,72.89
2018-06-25T12:25:24.717Z,73.66
2018-06-25T12:26:24.705Z,73.27
2018-06-25T12:27:24.686Z,73.46
2018-06-25T12:28:24.716Z,72.92
2018-06-25T12:29:24.668Z,71.16
2018-06-25T12:30:24.669Z,70.78
2018-06-25T12:31:24.658Z,71.64
2018-06-25T12:32:24.663Z,72.50
2018-06-25T12:33:24.772Z,70.49
2018-06-25T12:34:24.641Z,69.85
2018-06-25T12:35:24.622Z,68.85
2018-06-25T12:36:24.634Z,68.79
2018-06-25T12:37:24.619Z,69.18
2018-06-25T12:38:24.605Z,69.37
2018-06-25T12:39:24.640Z,70.52
2018-06-25T12:40:24.589Z,70.23
2018-06-25T12:41:24.588Z,70.43
2018-06-25T12:42:24.571Z,69.56
2018-06-25T12:43:24.643Z,69.75
2018-06-25T12:44:24.577Z,69.08
2018-06-25T12:45:24.557Z,69.27
2018-06-25T12:46:24.544Z,68.21
2018-06-25T12:47:24.535Z,68.89
2018-06-25T12:48:24.631Z,68.31
2018-06-25T12:49:24.574Z,68.60
2018-06-25T12:50:24.515Z,69.08
2018-06-25T12:51:24.509Z,69.27
2018-06-25T12:52:24.498Z,68.89